Time;durP1;ratioP1;P1;durP2;ratioP2;P2;SDS_P1;SDS_P2;PMS_P1;PMS_P2;Temp;Humidity;BMP_temperature;BMP_pressure;BME280_temperature;BME280_humidity;BME280_pressure;Samples;Min_cycle;Max_cycle;Signal;HPM_P1;HPM_P2
2023/05/10 00:01:38;;;;;;;51.63;21.80;;;;;;;-145.18;100.00;46660.41;4946637;29;20079;-75
2023/05/10 00:04:03;;;;;;;54.37;22.83;;;;;;;-145.18;100.00;46658.44;4943950;29;20047;-75
2023/05/10 00:06:29;;;;;;;49.93;22.03;;;;;;;-145.18;100.00;46660.41;4944560;28;20055;-75
2023/05/10 00:08:55;;;;;;;51.07;21.50;;;;;;;-145.18;100.00;46660.41;4948892;29;20397;-75
2023/05/10 00:11:20;;;;;;;54.27;21.80;;;;;;;-145.18;100.00;46662.34;4942398;29;20130;-75
2023/05/10 00:13:46;;;;;;;46.17;20.40;;;;;;;-145.18;100.00;46662.34;4941496;29;20068;-75
2023/05/10 00:16:12;;;;;;;52.37;21.77;;;;;;;-145.18;100.00;46662.34;4941392;28;20485;-74
2023/05/10 00:18:38;;;;;;;52.50;21.23;;;;;;;-145.18;100.00;46664.31;4944845;29;20511;-75
2023/05/10 00:21:04;;;;;;;47.67;20.30;;;;;;;-145.18;100.00;46658.44;4922626;29;20036;-75
2023/05/10 00:23:29;;;;;;;50.43;20.70;;;;;;;-145.18;100.00;46658.44;4941324;29;20032;-75
2023/05/10 00:25:55;;;;;;;40.43;18.53;;;;;;;-145.18;100.00;46660.41;4945213;29;20039;-75
2023/05/10 00:28:21;;;;;;;41.50;19.03;;;;;;;-145.18;100.00;46662.34;4946747;29;20439;-74
2023/05/10 00:30:46;;;;;;;47.73;19.80;;;;;;;-145.18;100.00;46664.31;4940230;29;20037;-74
2023/05/10 00:33:12;;;;;;;46.97;18.90;;;;;;;-145.18;100.00;46668.22;4939338;29;20102;-74
2023/05/10 00:35:38;;;;;;;35.23;16.63;;;;;;;-145.18;100.00;46660.41;4944466;29;20046;-74
2023/05/10 00:38:03;;;;;;;45.13;17.73;;;;;;;-145.18;100.00;46662.34;4945567;29;20047;-75
2023/05/10 00:40:30;;;;;;;41.87;17.13;;;;;;;-145.18;100.00;46664.31;4946783;28;20114;-75
2023/05/10 00:42:56;;;;;;;43.03;17.37;;;;;;;-145.18;100.00;46664.31;4943875;29;20090;-74
2023/05/10 00:45:21;;;;;;;41.00;17.40;;;;;;;-145.18;100.00;46664.31;4940899;29;20032;-75
2023/05/10 00:47:47;;;;;;;43.10;17.93;;;;;;;-145.18;100.00;46668.22;4940385;29;20027;-75
2023/05/10 00:50:13;;;;;;;45.37;19.10;;;;;;;-145.18;100.00;46668.22;4939824;29;20046;-75
2023/05/10 00:52:39;;;;;;;43.50;17.97;;;;;;;-145.18;100.00;46666.25;4944538;29;20066;-75
2023/05/10 00:55:05;;;;;;;39.60;18.73;;;;;;;-145.18;100.00;46670.16;4942703;29;20027;-75
2023/05/10 00:57:31;;;;;;;42.80;19.60;;;;;;;-145.18;100.00;46670.16;4938788;29;20039;-75
2023/05/10 00:59:58;;;;;;;45.70;19.87;;;;;;;-145.18;100.00;46660.41;4925251;29;20043;-75
2023/05/10 01:02:24;;;;;;;52.33;22.17;;;;;;;-145.18;100.00;46664.31;4940425;29;20040;-74
2023/05/10 01:04:50;;;;;;;50.83;23.13;;;;;;;-145.18;100.00;46666.25;4920526;29;20095;-74
2023/05/10 01:07:15;;;;;;;56.83;23.67;;;;;;;-145.18;100.00;46672.13;4936606;29;20043;-75
2023/05/10 01:09:41;;;;;;;62.00;24.70;;;;;;;-145.18;100.00;46662.34;4949815;29;20035;-74
2023/05/10 01:12:07;;;;;;;56.23;23.50;;;;;;;-145.18;100.00;46672.13;4917705;29;20043;-75
2023/05/10 01:14:33;;;;;;;55.50;24.40;;;;;;;-145.18;100.00;46666.25;4917770;29;20063;-75
2023/05/10 01:17:00;;;;;;;58.27;23.83;;;;;;;-145.18;100.00;46662.34;4934210;29;20032;-75
2023/05/10 01:19:29;;;;;;;57.67;24.67;;;;;;;-145.18;100.00;46668.22;4942888;29;20477;-76
2023/05/10 01:22:12;;;;;;;58.07;25.43;;;;;;;-145.18;100.00;46674.06;4941026;29;20503;-75
2023/05/10 01:24:59;;;;;;;51.40;24.13;;;;;;;-145.18;100.00;46666.25;4950584;28;20042;-75
2023/05/10 01:27:24;;;;;;;67.90;25.60;;;;;;;-145.18;100.00;46670.16;4937288;29;20539;-75
2023/05/10 01:30:01;;;;;;;52.17;23.47;;;;;;;-145.18;100.00;46681.88;4950997;28;20032;-75
2023/05/10 01:32:52;;;;;;;49.87;23.37;;;;;;;-145.18;100.00;46670.16;4932877;29;20036;-75
2023/05/10 01:35:34;;;;;;;57.60;24.70;;;;;;;-145.18;100.00;46674.06;4935146;29;20031;-75
2023/05/10 01:38:10;;;;;;;55.47;23.33;;;;;;;-145.18;100.00;46672.13;4945195;29;20500;-75
2023/05/10 01:40:44;;;;;;;55.23;22.93;;;;;;;-145.18;100.00;46672.13;4945370;29;20036;-75
2023/05/10 01:43:19;;;;;;;58.47;23.90;;;;;;;-145.18;100.00;46670.16;4943070;29;20027;-75
2023/05/10 01:45:56;;;;;;;49.60;22.20;;;;;;;-145.18;100.00;46670.16;4929264;29;20036;-74
2023/05/10 01:48:23;;;;;;;58.10;23.07;;;;;;;-145.18;100.00;46672.13;4949968;29;20035;-74
2023/05/10 01:50:51;;;;;;;53.93;22.40;;;;;;;-145.18;100.00;46674.06;4946608;29;20040;-74
2023/05/10 01:53:19;;;;;;;54.50;23.37;;;;;;;-145.18;100.00;46668.22;4932560;29;20036;-75
2023/05/10 01:55:48;;;;;;;57.40;23.20;;;;;;;-145.18;100.00;46683.84;4934303;29;20389;-75
2023/05/10 01:58:18;;;;;;;61.00;24.27;;;;;;;-145.18;100.00;46672.13;4933236;29;20414;-75
2023/05/10 02:03:23;;;;;;;51.65;23.20;;;;;;;-145.18;100.00;46670.16;4982074;23;20059;-76
2023/05/10 02:05:50;;;;;;;52.33;22.47;;;;;;;-145.18;100.00;46672.13;4934727;29;20028;-76
2023/05/10 02:08:18;;;;;;;52.37;21.37;;;;;;;-145.18;100.00;46672.13;4951729;28;20503;-77
2023/05/10 02:10:46;;;;;;;50.60;21.57;;;;;;;-145.18;100.00;46668.22;4952144;28;20034;-77
2023/05/10 02:13:13;;;;;;;52.87;21.97;;;;;;;-145.18;100.00;46668.22;4951852;28;20038;-76
2023/05/10 02:15:41;;;;;;;57.63;22.87;;;;;;;-145.18;100.00;46670.16;4955793;28;20435;-76
2023/05/10 02:18:09;;;;;;;50.73;21.97;;;;;;;-145.18;100.00;46677.97;4936943;29;20024;-77
2023/05/10 02:20:35;;;;;;;52.80;22.50;;;;;;;-145.18;100.00;46676.03;4937174;29;20090;-76
2023/05/10 02:23:03;;;;;;;53.10;21.77;;;;;;;-145.18;100.00;46668.22;4936658;29;20032;-76
2023/05/10 02:25:29;;;;;;;49.40;20.83;;;;;;;-145.18;100.00;46668.22;4948909;29;20050;-76
2023/05/10 02:27:56;;;;;;;50.57;20.30;;;;;;;-145.18;100.00;46679.94;4955332;28;20039;-76
2023/05/10 02:30:23;;;;;;;50.73;19.93;;;;;;;-145.18;100.00;46674.06;4956102;28;20062;-76
2023/05/10 02:32:50;;;;;;;42.27;20.27;;;;;;;-145.18;100.00;46672.13;4955595;28;20392;-76
2023/05/10 02:35:16;;;;;;;43.23;19.33;;;;;;;-145.18;100.00;46670.16;4955844;28;20027;-75
2023/05/10 02:37:43;;;;;;;48.20;18.97;;;;;;;-145.18;100.00;46674.06;4955464;28;20484;-76
2023/05/10 02:40:10;;;;;;;44.17;19.23;;;;;;;-145.18;100.00;46668.22;4955743;28;20035;-76
2023/05/10 02:42:38;;;;;;;44.47;18.73;;;;;;;-145.18;100.00;46668.22;4955537;28;20038;-76
2023/05/10 02:45:17;;;;;;;42.63;19.63;;;;;;;-145.18;100.00;46672.13;4955780;28;20102;-76
2023/05/10 02:47:43;;;;;;;49.20;18.47;;;;;;;-145.18;100.00;46670.16;4955119;28;20038;-76
2023/05/10 02:50:09;;;;;;;45.60;19.00;;;;;;;-145.18;100.00;46666.25;4955712;28;20392;-76
2023/05/10 02:52:59;;;;;;;42.00;18.27;;;;;;;-145.18;100.00;46668.22;4955143;28;20071;-76
2023/05/10 02:55:32;;;;;;;44.77;19.27;;;;;;;-145.18;100.00;46666.25;4955664;28;20114;-76
2023/05/10 02:58:00;;;;;;;43.60;19.07;;;;;;;-145.18;100.00;46670.16;4954880;28;20034;-75
2023/05/10 03:00:25;;;;;;;46.63;18.63;;;;;;;-145.18;100.00;46666.25;4955520;28;20035;-76
2023/05/10 03:02:52;;;;;;;41.43;18.43;;;;;;;-145.18;100.00;46664.31;4954544;28;20047;-76
2023/05/10 03:05:17;;;;;;;50.40;20.57;;;;;;;-145.18;100.00;46666.25;4955214;28;20530;-75
2023/05/10 03:07:44;;;;;;;55.67;20.23;;;;;;;-145.18;100.00;46666.25;4939508;28;20035;-76
2023/05/10 03:10:10;;;;;;;54.60;19.93;;;;;;;-145.18;100.00;46664.31;4936161;29;20107;-76
2023/05/10 03:12:42;;;;;;;50.40;19.57;;;;;;;-145.18;100.00;46672.13;4935926;29;20040;-76
2023/05/10 03:15:18;;;;;;;57.90;23.73;;;;;;;-145.18;100.00;46668.22;4936181;29;20540;-76
2023/05/10 03:17:43;;;;;;;50.13;21.50;;;;;;;-145.18;100.00;46668.22;4950744;29;20065;-76
2023/05/10 03:20:11;;;;;;;56.00;21.53;;;;;;;-145.18;100.00;46672.13;4955136;29;20058;-76
2023/05/10 03:22:46;;;;;;;55.23;21.43;;;;;;;-145.18;100.00;46666.25;4959799;28;20546;-76
2023/05/10 03:25:12;;;;;;;52.75;20.58;;;;;;;-145.18;100.00;46674.06;4965041;28;20031;-76
2023/05/10 03:27:40;;;;;;;53.03;23.17;;;;;;;-145.18;100.00;46660.41;4939105;29;20124;-76
2023/05/10 03:30:08;;;;;;;53.07;22.50;;;;;;;-145.18;100.00;46674.06;4935899;29;20481;-75
2023/05/10 03:32:34;;;;;;;48.20;21.83;;;;;;;-145.18;100.00;46668.22;4935452;29;20034;-76
2023/05/10 03:35:00;;;;;;;49.87;23.10;;;;;;;-145.18;100.00;46674.06;4935572;29;20408;-76
2023/05/10 03:37:25;;;;;;;48.83;22.40;;;;;;;-145.18;100.00;46674.06;4936486;29;20075;-75
2023/05/10 03:39:50;;;;;;;54.73;21.80;;;;;;;-145.18;100.00;46674.06;4935558;29;20039;-76
2023/05/10 03:42:17;;;;;;;47.87;23.00;;;;;;;-145.18;100.00;46668.22;4948236;28;20039;-76
2023/05/10 03:44:43;;;;;;;56.47;23.27;;;;;;;-145.18;100.00;46668.22;4954544;28;20535;-76
2023/05/10 03:47:08;;;;;;;52.77;21.87;;;;;;;-145.18;100.00;46672.13;4953786;28;20035;-76
2023/05/10 03:49:33;;;;;;;47.60;21.90;;;;;;;-145.18;100.00;46672.13;4954478;29;20539;-76
2023/05/10 03:51:59;;;;;;;48.83;22.10;;;;;;;-145.18;100.00;46674.06;4954266;29;20031;-76
2023/05/10 03:54:24;;;;;;;48.07;22.53;;;;;;;-145.18;100.00;46672.13;4954375;29;20031;-76
2023/05/10 03:56:49;;;;;;;47.70;21.47;;;;;;;-145.18;100.00;46676.03;4943278;28;20079;-76
2023/05/10 03:59:15;;;;;;;51.03;23.23;;;;;;;-145.18;100.00;46670.16;4940039;29;20530;-75
2023/05/10 04:01:40;;;;;;;50.97;22.93;;;;;;;-145.18;100.00;46664.31;4944777;29;20035;-76
2023/05/10 04:05:08;;;;;;;56.73;23.97;;;;;;;-145.18;100.00;46676.03;4942895;28;20063;-76
2023/05/10 04:09:03;;;;;;;52.20;22.80;;;;;;;-145.18;100.00;46681.88;4942876;28;20039;-76
2023/05/10 04:12:54;;;;;;;45.40;22.77;;;;;;;-145.18;100.00;46674.06;4924590;29;20032;-76
2023/05/10 04:16:45;;;;;;;54.97;23.03;;;;;;;-145.18;100.00;46670.16;4924452;29;20544;-76
2023/05/10 04:20:41;;;;;;;49.67;22.03;;;;;;;-145.18;100.00;46672.13;4934913;29;20032;-76
2023/05/10 04:35:10;;;;;;;59.80;22.70;;;;;;;-145.18;100.00;46674.06;4927906;29;20042;-76
2023/05/10 04:39:02;;;;;;;57.13;22.03;;;;;;;-145.18;100.00;46674.06;4932901;29;20032;-76
2023/05/10 04:42:54;;;;;;;56.23;22.90;;;;;;;-145.18;100.00;46668.22;4927395;29;20036;-76
2023/05/10 04:46:49;;;;;;;61.07;22.73;;;;;;;-145.18;100.00;46670.16;4914840;29;20493;-76
2023/05/10 04:50:40;;;;;;;62.43;22.83;;;;;;;-145.18;100.00;46670.16;4915147;29;20179;-76
2023/05/10 04:54:36;;;;;;;61.53;22.30;;;;;;;-145.18;100.00;46676.03;4915116;29;20039;-76
